createdAt,value
2022-11-28T00:02:15.197Z,50.30
2022-11-28T00:04:42.221Z,49.88
2022-11-28T00:07:11.398Z,50.40
2022-11-28T00:09:38.292Z,49.94
2022-11-28T00:12:04.888Z,50.14
2022-11-28T00:14:31.440Z,50.10
2022-11-28T00:16:58.012Z,50.19
2022-11-28T00:19:24.560Z,50.06
2022-11-28T00:21:51.112Z,50.13
2022-11-28T00:24:17.739Z,49.97
2022-11-28T00:26:44.520Z,49.94
2022-11-28T00:29:11.337Z,50.05
2022-11-28T00:31:42.667Z,50.16
2022-11-28T00:34:13.944Z,50.12
2022-11-28T00:36:40.769Z,50.09
2022-11-28T00:39:07.325Z,50.01
2022-11-28T00:41:36.885Z,50.27
2022-11-28T00:44:03.411Z,50.08
2022-11-28T00:46:30.062Z,49.87
2022-11-28T00:48:57.915Z,49.95
2022-11-28T00:51:26.992Z,50.25
2022-11-28T00:53:54.979Z,50.32
2022-11-28T00:56:24.468Z,50.22
2022-11-28T00:58:51.152Z,50.24
2022-11-28T01:01:24.099Z,50.17
2022-11-28T01:03:52.194Z,50.18
2022-11-28T01:06:32.704Z,50.29
2022-11-28T01:09:02.056Z,50.08
2022-11-28T01:11:29.393Z,50.04
2022-11-28T01:13:58.592Z,50.32
2022-11-28T01:16:25.685Z,50.10
2022-11-28T01:18:52.411Z,50.07
2022-11-28T01:21:19.218Z,50.23
2022-11-28T01:23:45.806Z,50.21
2022-11-28T01:26:18.082Z,50.06
2022-11-28T01:28:44.937Z,50.15
2022-11-28T01:31:17.596Z,50.17
2022-11-28T01:33:44.587Z,50.32
2022-11-28T01:36:12.657Z,50.32
2022-11-28T01:38:39.243Z,50.11
2022-11-28T01:41:06.299Z,50.27
2022-11-28T01:43:33.010Z,50.27
2022-11-28T01:45:59.676Z,50.13
2022-11-28T01:48:48.745Z,50.17
2022-11-28T01:51:15.368Z,50.18
2022-11-28T01:53:45.255Z,50.08
2022-11-28T01:56:25.245Z,50.17
2022-11-28T01:58:58.459Z,50.16
2022-11-28T02:01:25.933Z,50.13
2022-11-28T02:03:53.300Z,50.07
2022-11-28T02:06:22.446Z,50.25
2022-11-28T02:08:53.110Z,50.37
2022-11-28T02:12:04.407Z,50.27
2022-11-28T02:15:04.765Z,50.10
2022-11-28T02:17:49.699Z,50.33
2022-11-28T02:20:24.866Z,50.28
2022-11-28T02:23:03.213Z,50.19
2022-11-28T02:25:48.440Z,50.15
2022-11-28T02:28:36.356Z,50.35
2022-11-28T02:31:33.493Z,50.27
2022-11-28T02:34:04.400Z,50.45
2022-11-28T02:36:35.904Z,50.48
2022-11-28T02:39:17.128Z,50.40
2022-11-28T02:42:06.030Z,50.32
2022-11-28T02:44:36.659Z,50.15
2022-11-28T02:47:06.107Z,50.34
2022-11-28T02:49:41.343Z,50.23
2022-11-28T02:52:18.119Z,50.15
2022-11-28T02:54:45.737Z,50.34
2022-11-28T02:57:12.299Z,50.34
2022-11-28T02:59:38.755Z,50.49
2022-11-28T03:02:13.359Z,50.31
2022-11-28T03:04:52.249Z,50.33
2022-11-28T03:07:39.094Z,50.52
2022-11-28T03:10:22.308Z,50.45
2022-11-28T03:13:33.404Z,50.50
2022-11-28T03:16:06.862Z,50.46
2022-11-28T03:18:38.505Z,50.41
2022-11-28T03:21:08.011Z,50.31
2022-11-28T03:23:46.871Z,50.50
2022-11-28T03:26:29.484Z,50.53
2022-11-28T03:29:02.326Z,50.49
2022-11-28T03:31:36.993Z,50.54
2022-11-28T03:34:06.089Z,50.72
2022-11-28T03:36:35.654Z,50.38
2022-11-28T03:39:06.903Z,50.35
2022-11-28T03:41:34.652Z,50.51
2022-11-28T03:44:02.440Z,50.65
2022-11-28T03:46:41.302Z,50.54
2022-11-28T03:49:09.460Z,50.37
2022-11-28T03:51:49.005Z,50.70
2022-11-28T03:54:34.034Z,50.47
2022-11-28T03:57:12.597Z,50.68
2022-11-28T03:59:44.971Z,50.72
2022-11-28T04:02:17.975Z,50.57
2022-11-28T04:05:08.383Z,50.47
2022-11-28T04:07:43.995Z,50.62
2022-11-28T04:10:33.921Z,50.58
2022-11-28T04:13:13.432Z,50.74
2022-11-28T04:16:02.827Z,50.78
2022-11-28T04:18:56.912Z,50.62
2022-11-28T04:21:23.282Z,50.71
2022-11-28T04:23:51.160Z,50.71
2022-11-28T04:26:21.982Z,50.74
2022-11-28T04:28:49.734Z,50.69
2022-11-28T04:31:17.904Z,50.67
2022-11-28T04:33:48.171Z,50.71
2022-11-28T04:36:17.084Z,50.49
2022-11-28T04:38:45.492Z,50.61
2022-11-28T04:41:15.276Z,50.63
2022-11-28T04:43:51.489Z,50.65
2022-11-28T04:46:22.531Z,50.60
2022-11-28T04:48:49.151Z,50.75
2022-11-28T04:51:20.484Z,50.66
2022-11-28T04:53:57.154Z,50.76
2022-11-28T04:56:45.055Z,50.64
2022-11-28T04:59:12.924Z,50.56
2022-11-28T05:01:42.009Z,50.55
2022-11-28T05:04:08.872Z,50.63
2022-11-28T05:06:36.896Z,50.77
2022-11-28T05:09:04.100Z,50.68
2022-11-28T05:11:30.935Z,50.78
2022-11-28T05:13:57.491Z,50.69
2022-11-28T05:16:24.160Z,50.72
2022-11-28T05:18:50.925Z,50.57
2022-11-28T05:21:17.467Z,50.69
2022-11-28T05:23:44.791Z,50.53
2022-11-28T05:26:14.776Z,50.64
2022-11-28T05:28:45.554Z,50.72
2022-11-28T05:31:12.926Z,50.68
2022-11-28T05:33:39.712Z,50.67
2022-11-28T05:36:12.647Z,50.78
2022-11-28T05:38:39.894Z,50.59
2022-11-28T05:41:07.121Z,50.90
2022-11-28T05:43:33.719Z,50.64
2022-11-28T05:46:00.485Z,50.59
2022-11-28T05:48:27.103Z,50.57
2022-11-28T05:50:53.707Z,50.64
2022-11-28T05:53:20.458Z,50.71
2022-11-28T05:55:47.322Z,50.58
2022-11-28T05:58:13.877Z,50.63
2022-11-28T06:00:40.577Z,50.77
2022-11-28T06:03:07.191Z,50.81
2022-11-28T06:05:49.014Z,50.73
2022-11-28T06:08:16.020Z,50.81
2022-11-28T06:10:42.588Z,50.72
2022-11-28T06:13:09.256Z,50.57
2022-11-28T06:15:38.141Z,50.87
2022-11-28T06:18:05.610Z,50.76
2022-11-28T06:20:32.187Z,50.73
2022-11-28T06:22:59.049Z,50.66
2022-11-28T06:25:25.592Z,50.78
2022-11-28T06:27:52.214Z,50.91
2022-11-28T06:30:18.809Z,50.87
2022-11-28T06:32:45.420Z,50.77
2022-11-28T06:35:11.980Z,50.80
2022-11-28T06:37:38.633Z,50.56
2022-11-28T06:40:05.838Z,50.89
2022-11-28T06:42:32.431Z,50.76
2022-11-28T06:44:59.024Z,50.79
2022-11-28T06:47:25.592Z,50.82
2022-11-28T06:49:52.759Z,50.99
2022-11-28T06:52:19.288Z,50.74
2022-11-28T06:54:45.853Z,51.03
2022-11-28T06:57:12.696Z,51.06
2022-11-28T06:59:39.517Z,50.79
2022-11-28T07:02:08.059Z,50.47
2022-11-28T07:04:35.050Z,50.08
2022-11-28T07:07:01.858Z,49.67
2022-11-28T07:09:28.553Z,49.37
2022-11-28T07:11:55.189Z,49.47
2022-11-28T07:14:21.782Z,49.55
2022-11-28T07:16:49.333Z,49.55
2022-11-28T07:19:16.041Z,48.80
2022-11-28T07:21:42.605Z,48.84
2022-11-28T07:24:09.168Z,48.48
2022-11-28T07:26:38.092Z,48.22
2022-11-28T07:29:07.008Z,48.24
2022-11-28T07:31:33.875Z,48.19
2022-11-28T07:34:03.490Z,48.54
2022-11-28T07:36:30.605Z,47.96
2022-11-28T07:38:59.370Z,48.02
2022-11-28T07:41:27.219Z,47.85
2022-11-28T07:43:56.666Z,47.82
2022-11-28T07:46:24.332Z,47.68
2022-11-28T07:48:51.301Z,47.88
2022-11-28T07:51:23.468Z,48.12
2022-11-28T07:53:50.062Z,48.17
2022-11-28T07:56:22.028Z,48.40
2022-11-28T07:58:49.265Z,48.36
2022-11-28T08:01:24.195Z,48.71
2022-11-28T08:03:51.691Z,48.45
2022-11-28T08:06:19.428Z,48.34
2022-11-28T08:08:47.248Z,48.44
2022-11-28T08:11:14.608Z,48.63
2022-11-28T08:13:41.212Z,48.80
2022-11-28T08:16:11.524Z,48.96
2022-11-28T08:18:38.107Z,48.83
2022-11-28T08:21:09.104Z,49.07
2022-11-28T08:23:36.305Z,49.22
2022-11-28T08:26:05.190Z,49.18
2022-11-28T08:28:32.137Z,49.22
2022-11-28T08:31:01.457Z,49.25
2022-11-28T08:33:28.196Z,49.30
2022-11-28T08:35:54.747Z,49.25
2022-11-28T08:38:21.439Z,49.56
2022-11-28T08:40:48.006Z,49.36
2022-11-28T08:43:14.648Z,49.52
2022-11-28T08:45:41.279Z,49.41
2022-11-28T08:48:07.896Z,49.52
2022-11-28T08:50:34.468Z,49.68
2022-11-28T08:53:07.660Z,49.60
2022-11-28T08:55:39.173Z,49.71
2022-11-28T08:58:08.551Z,49.87
2022-11-28T09:00:35.251Z,49.77
2022-11-28T09:03:01.837Z,49.94
2022-11-28T09:05:29.543Z,49.78
2022-11-28T09:07:56.425Z,49.79
2022-11-28T09:10:23.794Z,49.88
2022-11-28T09:12:51.220Z,49.44
2022-11-28T09:15:19.096Z,49.33
2022-11-28T09:17:46.440Z,49.35
2022-11-28T09:20:13.463Z,49.76
2022-11-28T09:22:40.796Z,49.55
2022-11-28T09:25:08.014Z,49.67
2022-11-28T09:27:34.653Z,49.55
2022-11-28T09:30:01.244Z,49.61
2022-11-28T09:32:27.766Z,49.57
2022-11-28T09:34:54.567Z,49.31
2022-11-28T09:37:21.129Z,49.56
2022-11-28T09:40:11.642Z,49.44
2022-11-28T09:42:43.707Z,49.43
2022-11-28T09:45:21.594Z,49.43
2022-11-28T09:47:52.123Z,49.61
2022-11-28T09:50:24.643Z,49.39
2022-11-28T09:53:12.910Z,49.48
2022-11-28T09:55:47.337Z,49.71
2022-11-28T09:58:38.575Z,49.58
2022-11-28T10:01:11.121Z,49.60
2022-11-28T10:04:03.668Z,49.76
2022-11-28T10:06:39.520Z,49.47
2022-11-28T10:09:18.184Z,49.58
2022-11-28T10:12:01.524Z,49.61
2022-11-28T10:14:46.596Z,49.70
2022-11-28T10:17:33.573Z,49.47
2022-11-28T10:20:23.643Z,49.69
2022-11-28T10:22:54.974Z,50.12
2022-11-28T10:25:57.466Z,50.20
2022-11-28T10:28:28.451Z,50.69
2022-11-28T10:31:04.684Z,50.52
2022-11-28T10:33:41.974Z,50.68
2022-11-28T10:36:16.214Z,50.40
2022-11-28T10:38:42.788Z,51.25
2022-11-28T10:41:35.106Z,51.30
2022-11-28T10:44:21.479Z,51.37
2022-11-28T10:46:52.556Z,51.48
2022-11-28T10:49:33.958Z,51.75
2022-11-28T10:52:22.569Z,51.89
2022-11-28T10:55:08.964Z,51.97
2022-11-28T10:57:43.964Z,51.85
2022-11-28T11:00:19.782Z,51.49
2022-11-28T11:02:49.190Z,51.85
2022-11-28T11:05:20.833Z,51.92
2022-11-28T11:07:51.005Z,51.84
2022-11-28T11:10:49.337Z,51.73
2022-11-28T11:13:27.599Z,51.94
2022-11-28T11:16:06.004Z,51.41
2022-11-28T11:18:38.550Z,51.60
2022-11-28T11:21:23.537Z,51.80
2022-11-28T11:24:10.884Z,51.81
2022-11-28T11:26:42.241Z,51.33
2022-11-28T11:29:29.902Z,51.57
2022-11-28T11:32:03.511Z,51.12
2022-11-28T11:34:53.150Z,51.18
2022-11-28T11:37:34.521Z,50.93
2022-11-28T11:40:02.266Z,51.42
2022-11-28T11:42:30.982Z,51.28
2022-11-28T11:45:27.891Z,51.37
2022-11-28T11:47:55.103Z,51.46
2022-11-28T11:50:24.746Z,51.34
2022-11-28T11:53:10.278Z,51.11
2022-11-28T11:55:49.354Z,51.32
2022-11-28T11:58:20.111Z,51.07
2022-11-28T12:00:46.998Z,50.39
2022-11-28T12:03:27.624Z,50.63
2022-11-28T12:06:15.260Z,50.83
2022-11-28T12:08:51.677Z,50.42
2022-11-28T12:11:52.258Z,50.44
2022-11-28T12:14:30.602Z,50.33
2022-11-28T12:17:25.729Z,50.17
2022-11-28T12:20:20.690Z,50.35
2022-11-28T12:23:05.695Z,50.52
2022-11-28T12:25:46.044Z,50.79
2022-11-28T12:28:37.288Z,50.55
2022-11-28T12:31:12.823Z,50.70
2022-11-28T12:34:29.756Z,50.66
2022-11-28T12:36:58.862Z,50.53
2022-11-28T12:39:44.281Z,50.42
2022-11-28T12:42:33.095Z,50.66
2022-11-28T12:45:27.616Z,50.66
2022-11-28T12:48:32.802Z,50.59
2022-11-28T12:51:05.647Z,50.41
2022-11-28T12:54:02.095Z,50.52
2022-11-28T12:56:49.517Z,50.42
2022-11-28T12:59:37.353Z,50.64
2022-11-28T13:02:42.809Z,50.34
2022-11-28T13:05:20.883Z,50.25
2022-11-28T13:07:53.468Z,50.21
2022-11-28T13:10:34.900Z,50.25
2022-11-28T13:13:26.527Z,50.34
2022-11-28T13:16:05.198Z,50.46
2022-11-28T13:18:47.293Z,50.26
2022-11-28T13:21:29.482Z,50.26
2022-11-28T13:24:23.767Z,50.25
2022-11-28T13:27:12.943Z,50.14
2022-11-28T13:29:48.192Z,50.11
2022-11-28T13:32:22.375Z,50.22
2022-11-28T13:34:49.513Z,50.33
2022-11-28T13:40:20.535Z,50.03
2022-11-28T13:43:07.954Z,49.99
2022-11-28T13:45:36.594Z,50.18
2022-11-28T13:49:13.311Z,50.23
2022-11-28T13:51:30.993Z,50.00
2022-11-28T13:54:17.083Z,50.23
2022-11-28T13:56:45.608Z,50.25
2022-11-28T13:59:23.306Z,50.08
2022-11-28T14:01:59.595Z,50.00
2022-11-28T14:04:27.666Z,49.77
2022-11-28T14:07:00.799Z,49.88
2022-11-28T14:09:52.294Z,49.99
2022-11-28T14:12:18.850Z,50.23
2022-11-28T14:14:45.554Z,49.96
2022-11-28T14:17:12.233Z,49.91
2022-11-28T14:19:41.725Z,50.13
2022-11-28T14:22:26.409Z,49.68
2022-11-28T14:25:04.161Z,49.84
2022-11-28T14:27:33.567Z,49.50
2022-11-28T14:30:00.717Z,49.79
2022-11-28T14:32:45.343Z,49.66
2022-11-28T14:35:53.001Z,49.91
2022-11-28T14:38:41.364Z,49.59
2022-11-28T14:41:11.962Z,49.75
2022-11-28T14:43:40.139Z,49.43
2022-11-28T14:46:28.189Z,50.04
2022-11-28T14:48:57.857Z,49.81
2022-11-28T14:51:49.151Z,49.79
2022-11-28T14:54:37.020Z,49.63
2022-11-28T14:57:12.271Z,49.75
2022-11-28T14:59:40.129Z,49.77
2022-11-28T15:02:12.549Z,49.84
2022-11-28T15:04:57.645Z,49.80
2022-11-28T15:07:45.676Z,49.66
2022-11-28T15:10:36.289Z,49.75
2022-11-28T15:13:24.586Z,49.63
2022-11-28T15:15:52.789Z,49.54
2022-11-28T15:18:21.023Z,49.66
2022-11-28T15:21:01.199Z,49.86
2022-11-28T15:23:37.007Z,49.49
2022-11-28T15:26:04.368Z,49.66
2022-11-28T15:28:36.091Z,49.71
2022-11-28T15:31:05.689Z,49.42
2022-11-28T15:33:33.559Z,49.62
2022-11-28T15:36:02.391Z,49.39
2022-11-28T15:38:30.674Z,49.71
2022-11-28T15:40:58.116Z,49.63
2022-11-28T15:43:25.025Z,49.87
2022-11-28T15:45:59.937Z,49.51
2022-11-28T15:48:38.980Z,49.56
2022-11-28T15:51:07.208Z,49.71
2022-11-28T15:53:33.829Z,49.60
2022-11-28T15:56:14.930Z,49.86
2022-11-28T15:58:44.731Z,49.75
2022-11-28T16:01:21.035Z,49.44
2022-11-28T16:04:00.987Z,49.23
2022-11-28T16:06:30.717Z,49.81
2022-11-28T16:09:04.477Z,49.52
2022-11-28T16:11:32.083Z,49.67
2022-11-28T16:14:01.428Z,49.66
2022-11-28T16:16:35.458Z,49.78
2022-11-28T16:19:04.994Z,49.79
2022-11-28T16:21:50.910Z,49.92
2022-11-28T16:24:33.940Z,49.91
2022-11-28T16:27:06.116Z,49.54
2022-11-28T16:29:35.405Z,49.68
2022-11-28T16:32:09.476Z,49.32
2022-11-28T16:34:50.231Z,49.47
2022-11-28T16:37:25.857Z,49.21
2022-11-28T16:40:24.715Z,49.21
2022-11-28T16:42:58.632Z,49.29
2022-11-28T16:45:28.307Z,49.18
2022-11-28T16:48:02.798Z,49.06
2022-11-28T16:50:29.373Z,49.18
2022-11-28T16:52:57.768Z,49.15
2022-11-28T16:55:27.302Z,49.23
2022-11-28T16:57:57.158Z,49.34
2022-11-28T17:00:23.709Z,48.94
2022-11-28T17:02:53.484Z,49.35
2022-11-28T17:05:20.490Z,49.21
2022-11-28T17:07:47.067Z,49.19
2022-11-28T17:10:14.007Z,49.34
2022-11-28T17:12:40.875Z,49.25
2022-11-28T17:15:14.369Z,49.08
2022-11-28T17:17:40.819Z,49.12
2022-11-28T17:20:07.957Z,49.02
2022-11-28T17:22:40.965Z,49.48
2022-11-28T17:25:08.166Z,49.40
2022-11-28T17:27:34.694Z,49.22
2022-11-28T17:30:01.247Z,49.23
2022-11-28T17:32:27.833Z,49.30
2022-11-28T17:34:54.437Z,49.00
2022-11-28T17:37:20.975Z,49.04
2022-11-28T17:40:05.975Z,48.87
2022-11-28T17:42:32.564Z,49.08
2022-11-28T17:44:59.125Z,48.90
2022-11-28T17:47:25.682Z,49.10
2022-11-28T17:49:52.591Z,49.22
2022-11-28T17:52:20.829Z,49.11
2022-11-28T17:54:47.382Z,48.68
2022-11-28T17:57:14.236Z,48.97
2022-11-28T17:59:41.061Z,49.00
2022-11-28T18:02:10.650Z,48.70
2022-11-28T18:04:37.545Z,48.46
2022-11-28T18:07:04.186Z,48.18
2022-11-28T18:09:30.806Z,48.16
2022-11-28T18:11:57.358Z,48.16
2022-11-28T18:14:24.376Z,48.04
2022-11-28T18:16:51.029Z,48.16
2022-11-28T18:19:17.637Z,48.19
2022-11-28T18:21:44.237Z,48.31
2022-11-28T18:24:10.779Z,48.39
2022-11-28T18:26:37.786Z,48.10
2022-11-28T18:29:04.598Z,48.31
2022-11-28T18:31:31.238Z,48.55
2022-11-28T18:34:02.232Z,48.35
2022-11-28T18:36:30.715Z,48.65
2022-11-28T18:39:02.144Z,48.44
2022-11-28T18:41:29.299Z,48.82
2022-11-28T18:43:57.031Z,48.58
2022-11-28T18:46:25.262Z,48.84
2022-11-28T18:48:52.431Z,48.68
2022-11-28T18:51:18.958Z,48.94
2022-11-28T18:53:46.376Z,48.84
2022-11-28T18:56:13.327Z,48.79
2022-11-28T18:58:41.846Z,48.97
2022-11-28T19:01:17.425Z,48.86
2022-11-28T19:03:51.827Z,49.10
2022-11-28T19:06:19.086Z,49.14
2022-11-28T19:08:45.988Z,49.05
2022-11-28T19:11:14.561Z,49.18
2022-11-28T19:13:42.857Z,48.83
2022-11-28T19:16:18.105Z,49.07
2022-11-28T19:18:44.967Z,49.04
2022-11-28T19:21:22.779Z,49.10
2022-11-28T19:23:50.008Z,49.29
2022-11-28T19:26:19.011Z,49.06
2022-11-28T19:28:45.695Z,49.07
2022-11-28T19:31:15.839Z,49.15
2022-11-28T19:33:43.488Z,49.20
2022-11-28T19:36:11.756Z,49.07
2022-11-28T19:38:39.117Z,49.37
2022-11-28T19:41:23.841Z,49.22
2022-11-28T19:43:51.576Z,49.14
2022-11-28T19:46:19.592Z,49.17
2022-11-28T19:48:46.637Z,49.43
2022-11-28T19:51:13.656Z,49.33
2022-11-28T19:53:41.979Z,49.42
2022-11-28T19:56:12.222Z,49.22
2022-11-28T19:58:38.889Z,49.40
2022-11-28T20:01:22.821Z,49.14
2022-11-28T20:03:50.034Z,49.35
2022-11-28T20:06:27.219Z,49.37
2022-11-28T20:08:54.965Z,49.43
2022-11-28T20:11:26.753Z,49.37
2022-11-28T20:14:20.829Z,49.22
2022-11-28T20:16:47.343Z,49.38
2022-11-28T20:19:14.956Z,49.59
2022-11-28T20:21:41.653Z,49.10
2022-11-28T20:24:08.377Z,49.40
2022-11-28T20:26:38.277Z,49.47
2022-11-28T20:29:05.833Z,49.41
2022-11-28T20:31:36.011Z,49.18
2022-11-28T20:34:03.515Z,49.25
2022-11-28T20:36:31.372Z,49.45
2022-11-28T20:38:58.779Z,49.56
2022-11-28T20:41:26.255Z,49.26
2022-11-28T20:43:53.213Z,49.29
2022-11-28T20:46:21.060Z,49.27
2022-11-28T20:48:48.147Z,49.24
2022-11-28T20:51:17.199Z,49.27
2022-11-28T20:53:43.930Z,49.51
2022-11-28T20:56:15.360Z,49.39
2022-11-28T20:58:42.945Z,49.35
2022-11-28T21:01:14.836Z,49.44
2022-11-28T21:03:41.601Z,49.46
2022-11-28T21:06:08.352Z,49.18
2022-11-28T21:08:35.387Z,49.44
2022-11-28T21:11:30.610Z,49.03
2022-11-28T21:14:01.058Z,49.40
2022-11-28T21:16:31.362Z,49.45
2022-11-28T21:19:01.835Z,49.45
2022-11-28T21:21:30.706Z,49.51
2022-11-28T21:24:03.548Z,49.45
2022-11-28T21:26:33.037Z,49.53
2022-11-28T21:29:05.792Z,49.55
2022-11-28T21:31:34.925Z,49.26
2022-11-28T21:34:02.234Z,49.15
2022-11-28T21:36:29.979Z,49.58
2022-11-28T21:38:58.579Z,49.62
2022-11-28T21:41:30.213Z,49.42
2022-11-28T21:43:57.364Z,49.88
2022-11-28T21:46:24.019Z,49.54
2022-11-28T21:48:50.807Z,50.12
2022-11-28T21:51:23.010Z,49.92
2022-11-28T21:53:49.961Z,49.66
2022-11-28T21:56:16.559Z,49.91
2022-11-28T21:58:43.136Z,49.61
2022-11-28T22:01:12.693Z,49.79
2022-11-28T22:03:40.216Z,49.73
2022-11-28T22:06:15.910Z,49.74
2022-11-28T22:08:42.879Z,49.63
2022-11-28T22:11:11.275Z,49.78
2022-11-28T22:13:39.097Z,49.80
2022-11-28T22:16:10.342Z,49.82
2022-11-28T22:18:37.206Z,49.74
2022-11-28T22:21:17.354Z,49.76
2022-11-28T22:23:51.919Z,49.82
2022-11-28T22:26:18.774Z,49.84
2022-11-28T22:28:50.400Z,49.87
2022-11-28T22:31:20.024Z,49.92
2022-11-28T22:33:46.612Z,49.86
2022-11-28T22:36:15.895Z,49.90
2022-11-28T22:38:43.706Z,50.13
2022-11-28T22:41:15.796Z,49.74
2022-11-28T22:43:42.404Z,49.94
2022-11-28T22:46:09.609Z,49.65
2022-11-28T22:48:37.337Z,49.89
2022-11-28T22:51:12.205Z,49.67
2022-11-28T22:53:38.754Z,49.55
2022-11-28T22:56:06.846Z,49.85
2022-11-28T22:58:44.689Z,49.87
2022-11-28T23:01:17.382Z,49.84
2022-11-28T23:03:44.817Z,49.39
2022-11-28T23:06:14.091Z,49.61
2022-11-28T23:08:40.659Z,49.59
2022-11-28T23:11:18.283Z,49.59
2022-11-28T23:13:45.411Z,49.71
2022-11-28T23:16:17.423Z,49.95
2022-11-28T23:18:45.416Z,49.74
2022-11-28T23:21:12.545Z,49.69
2022-11-28T23:23:39.790Z,49.89
2022-11-28T23:26:10.920Z,49.58
2022-11-28T23:28:38.264Z,49.69
2022-11-28T23:31:10.549Z,49.83
2022-11-28T23:33:37.675Z,50.08
2022-11-28T23:36:21.309Z,50.27
2022-11-28T23:38:49.450Z,49.68
2022-11-28T23:41:16.134Z,49.50
2022-11-28T23:43:42.724Z,49.73
2022-11-28T23:46:10.473Z,50.17
2022-11-28T23:48:37.274Z,50.13
2022-11-28T23:51:04.780Z,49.92
2022-11-28T23:53:31.351Z,49.88
2022-11-28T23:56:28.311Z,49.99
2022-11-28T23:58:55.887Z,50.02
